CheckWX is a tool to help pilots better visualize weather data.  It is not intended as a substitute for an official pre-flight weather briefing.

07:52:48 UTC

KBRL TAF
Southeast Iowa Regional Airport
Burlington, Iowa, USA
KBRL 210520Z 2106/2206 35003KT P6SM BKN120 FM211700 21007KT P6SM SCT120

Jan-21@
06:00 UTC

Jan-21 @ 06:00 UTC

Jan-21@
17:00 UTC

Jan-21 @ 17:00 UTC

KBRL 210520Z 2106/2206 35003KT P6SM BKN120
Wind
  • 350° at 3 KTS
Cloud Levels
  • Broken at 12,000' AGL

Jan-21@
17:00 UTC

Jan-21 @ 17:00 UTC

Jan-22@
06:00 UTC

Jan-22 @ 06:00 UTC

FM211700 21007KT P6SM SCT120

From

From Standard forecast or significant change

Wind
  • 210° at 7 KTS
Cloud Levels
  • Scattered at 12,000' AGL